Time;durP1;ratioP1;P1;durP2;ratioP2;P2;SDS_P1;SDS_P2;PMS_P1;PMS_P2;Temp;Humidity;BMP_temperature;BMP_pressure;BME280_temperature;BME280_humidity;BME280_pressure;Samples;Min_cycle;Max_cycle;Signal;HPM_P1;HPM_P2
2023/04/22 06:06:53;;;;;;;45.50;32.50;;;;;;;7.93;75.25;98692.80;225686;1279;22594;-77
2023/04/22 06:11:57;;;;;;;44.40;33.00;;;;;;;8.18;75.15;98689.48;225449;1278;22661;-77
2023/04/22 06:16:59;;;;;;;42.40;31.10;;;;;;;8.46;75.18;98688.91;225709;1278;22553;-77
2023/04/22 06:22:01;;;;;;;45.90;29.80;;;;;;;8.75;74.86;98691.27;225672;1280;22551;-78
2023/04/22 06:27:04;;;;;;;43.60;29.00;;;;;;;9.03;74.13;98688.40;225438;1280;23328;-77
2023/04/22 06:32:06;;;;;;;37.20;27.90;;;;;;;9.29;73.57;98685.45;225232;1269;22528;-77
2023/04/22 06:37:08;;;;;;;41.30;27.70;;;;;;;9.56;73.16;98684.31;225055;1278;22551;-76
2023/04/22 06:42:10;;;;;;;36.20;26.50;;;;;;;9.85;72.66;98682.95;225161;1278;22543;-79
2023/04/22 06:47:54;;;;;;;35.10;24.30;;;;;;;10.16;72.25;98689.36;225223;1280;23638;-78
2023/04/22 06:53:03;;;;;;;29.80;22.00;;;;;;;10.43;71.74;98689.93;224983;1257;22623;-78
2023/04/22 06:58:06;;;;;;;28.00;19.20;;;;;;;10.68;70.56;98693.12;224974;1272;24247;-78
2023/04/22 07:03:07;;;;;;;27.50;19.30;;;;;;;10.95;69.32;98690.52;224923;1265;23511;-77
2023/04/22 07:08:10;;;;;;;27.30;21.30;;;;;;;11.25;68.54;98688.04;224875;1257;22572;-78
2023/04/22 07:13:12;;;;;;;31.80;22.40;;;;;;;11.54;68.35;98691.33;225024;1263;22688;-77
2023/04/22 07:18:15;;;;;;;36.10;24.40;;;;;;;11.84;68.18;98690.38;224796;1259;22634;-78
2023/04/22 07:23:17;;;;;;;34.20;24.60;;;;;;;12.12;67.70;98688.48;224720;1278;24967;-77
2023/04/22 07:28:20;;;;;;;35.80;24.90;;;;;;;12.40;66.70;98691.06;224526;1280;22537;-77
2023/04/22 07:33:22;;;;;;;37.20;25.10;;;;;;;12.67;66.25;98691.94;224755;1275;25297;-78
2023/04/22 07:38:24;;;;;;;32.50;23.50;;;;;;;12.94;66.15;98693.08;224630;1277;22594;-78
2023/04/22 07:43:26;;;;;;;33.30;22.40;;;;;;;13.20;65.68;98689.77;224591;1279;22557;-78
2023/04/22 07:48:29;;;;;;;27.60;19.90;;;;;;;13.45;64.80;98687.59;224413;1276;22555;-78
2023/04/22 07:53:32;;;;;;;24.40;19.10;;;;;;;13.69;64.19;98695.29;224499;1280;22563;-77
2023/04/22 07:58:34;;;;;;;25.60;19.70;;;;;;;13.93;63.73;98693.05;224779;1281;22698;-79
2023/04/22 08:03:35;;;;;;;24.60;17.80;;;;;;;14.13;63.38;98689.48;224787;1280;22520;-77
2023/04/22 08:08:39;;;;;;;19.80;15.90;;;;;;;14.35;63.09;98691.11;224990;1260;22536;-77
2023/04/22 08:13:41;;;;;;;23.00;17.70;;;;;;;14.60;62.04;98691.92;224925;1257;25378;-77
2023/04/22 08:18:44;;;;;;;21.10;16.00;;;;;;;14.82;61.89;98689.41;224848;1274;22531;-78
2023/04/22 08:23:46;;;;;;;21.50;16.00;;;;;;;15.06;61.45;98691.77;224983;1273;22541;-78
2023/04/22 08:28:48;;;;;;;16.30;12.70;;;;;;;15.28;60.95;98691.16;224644;1281;22527;-78
2023/04/22 08:33:50;;;;;;;17.80;11.60;;;;;;;15.47;59.71;98684.52;224810;1265;22775;-78
2023/04/22 08:38:53;;;;;;;12.40;9.90;;;;;;;15.66;58.73;98683.48;224784;1264;22527;-79
2023/04/22 08:43:56;;;;;;;10.00;8.00;;;;;;;15.87;58.48;98678.55;224947;1277;22680;-77
2023/04/22 08:49:04;;;;;;;10.50;7.30;;;;;;;16.10;57.52;98672.72;224939;1258;22551;-77
2023/04/22 08:54:07;;;;;;;7.80;5.70;;;;;;;16.29;55.99;98672.73;224846;1280;23178;-79
2023/04/22 08:59:10;;;;;;;3.70;3.30;;;;;;;16.45;53.80;98670.44;224979;1263;22538;-80
2023/04/22 09:04:14;;;;;;;5.40;3.40;;;;;;;16.63;52.71;98665.88;224728;1277;22638;-79
2023/04/22 09:09:18;;;;;;;5.70;3.70;;;;;;;16.83;52.10;98661.09;224737;1277;22687;-78
2023/04/22 09:14:21;;;;;;;5.70;4.40;;;;;;;16.97;51.29;98661.21;224839;1257;22551;-80
2023/04/22 09:19:24;;;;;;;6.20;4.40;;;;;;;17.12;51.16;98661.92;224733;1279;22953;-79
2023/04/22 09:24:26;;;;;;;6.10;4.30;;;;;;;17.30;50.51;98661.68;224646;1257;22549;-80
2023/04/22 09:29:30;;;;;;;5.50;5.00;;;;;;;17.46;50.19;98661.88;224744;1276;22531;-79
2023/04/22 09:34:33;;;;;;;7.00;5.30;;;;;;;17.55;49.33;98654.46;224829;1276;25549;-80
2023/04/22 09:39:35;;;;;;;12.70;6.10;;;;;;;17.62;49.10;98653.56;224856;1262;22710;-81
2023/04/22 09:44:38;;;;;;;7.90;5.20;;;;;;;17.71;48.72;98647.02;224851;1267;22649;-80
2023/04/22 09:49:45;;;;;;;5.90;5.10;;;;;;;17.82;48.89;98644.56;224948;1278;22715;-80
2023/04/22 09:54:51;;;;;;;5.90;5.20;;;;;;;17.95;48.55;98633.31;225048;1262;22528;-80
2023/04/22 09:59:57;;;;;;;7.30;5.40;;;;;;;18.09;48.48;98628.44;224981;1264;22632;-80
2023/04/22 10:05:00;;;;;;;6.50;5.50;;;;;;;18.19;47.97;98624.60;224995;1263;22594;-80
2023/04/22 10:10:02;;;;;;;9.00;5.70;;;;;;;18.28;47.91;98627.17;224966;1259;25274;-80
2023/04/22 10:15:06;;;;;;;8.20;4.90;;;;;;;18.40;48.02;98622.23;224762;1257;22530;-80
2023/04/22 10:20:15;;;;;;;5.30;4.80;;;;;;;18.54;47.93;98616.27;224850;1263;22547;-81
2023/04/22 10:25:22;;;;;;;8.60;5.30;;;;;;;18.68;47.19;98615.05;224841;1263;167752;-81
2023/04/22 10:30:30;;;;;;;6.10;5.10;;;;;;;18.76;46.69;98610.37;224883;1271;23862;-80
2023/04/22 10:35:32;;;;;;;6.70;5.10;;;;;;;18.85;47.10;98606.23;224884;1262;22643;-81
2023/04/22 10:40:34;;;;;;;6.60;4.60;;;;;;;18.97;46.57;98603.56;224992;1273;23253;-78
2023/04/22 10:45:37;;;;;;;6.70;4.90;;;;;;;19.08;46.34;98601.04;224899;1257;22638;-79
2023/04/22 10:50:40;;;;;;;4.70;4.00;;;;;;;19.16;45.64;98599.70;224684;1262;22541;-78
2023/04/22 10:55:50;;;;;;;5.50;4.00;;;;;;;19.21;44.96;98594.08;224792;1257;22583;-77
2023/04/22 11:00:58;;;;;;;3.90;3.60;;;;;;;19.17;44.69;98590.31;224796;1257;22560;-79
2023/04/22 11:06:18;;;;;;;4.40;3.90;;;;;;;19.27;44.31;98586.49;225188;1273;22641;-78
2023/04/22 11:11:20;;;;;;;6.30;4.20;;;;;;;19.41;44.40;98580.66;224891;1280;22595;-78
2023/04/22 11:16:23;;;;;;;4.90;3.90;;;;;;;19.55;44.67;98578.18;225171;1280;22546;-79
2023/04/22 11:21:26;;;;;;;5.60;3.70;;;;;;;19.64;43.71;98572.17;224887;1280;24291;-79
2023/04/22 11:26:34;;;;;;;5.70;3.60;;;;;;;19.75;43.24;98566.22;225001;1276;22634;-79
2023/04/22 11:31:36;;;;;;;5.00;3.60;;;;;;;19.83;42.77;98561.60;225327;1276;22608;-80
2023/04/22 11:36:44;;;;;;;3.60;3.30;;;;;;;19.92;42.50;98558.41;225135;1277;22619;-80
2023/04/22 11:41:47;;;;;;;4.00;3.60;;;;;;;19.89;41.72;98550.66;225377;1277;22529;-79
2023/04/22 11:46:49;;;;;;;6.30;3.60;;;;;;;19.91;42.26;98547.29;225120;1280;22657;-78
2023/04/22 11:51:55;;;;;;;4.20;3.80;;;;;;;19.99;41.61;98545.23;225415;1278;22611;-78
2023/04/22 11:57:01;;;;;;;4.50;3.00;;;;;;;19.99;41.75;98542.93;225349;1278;22660;-78
2023/04/22 12:02:04;;;;;;;3.90;3.40;;;;;;;20.03;41.05;98537.81;225324;1274;22832;-80
2023/04/22 12:07:07;;;;;;;5.80;3.30;;;;;;;20.08;41.17;98531.09;225360;1278;22535;-79
2023/04/22 12:12:09;;;;;;;3.50;3.20;;;;;;;20.12;40.90;98527.31;225228;1280;22530;-80
2023/04/22 12:17:11;;;;;;;3.70;3.40;;;;;;;20.14;41.08;98524.77;225366;1274;22552;-79
2023/04/22 12:22:25;;;;;;;4.10;3.80;;;;;;;20.17;41.75;98526.50;225386;1279;22535;-78
2023/04/22 12:27:27;;;;;;;4.70;3.60;;;;;;;20.20;41.11;98515.09;225080;1279;22566;-78
2023/04/22 12:32:30;;;;;;;3.70;3.10;;;;;;;20.17;40.89;98513.42;225038;1280;22554;-79
2023/04/22 12:37:31;;;;;;;3.90;3.50;;;;;;;20.23;40.91;98508.36;225159;1278;22530;-79
2023/04/22 12:42:33;;;;;;;4.60;3.50;;;;;;;20.29;40.30;98506.37;225292;1280;23074;-79
2023/04/22 12:47:36;;;;;;;3.30;3.00;;;;;;;20.28;40.07;98505.98;225389;1278;22595;-80
2023/04/22 12:52:38;;;;;;;3.90;3.20;;;;;;;20.26;40.07;98502.00;225429;1280;22567;-79
2023/04/22 12:57:40;;;;;;;5.10;3.40;;;;;;;20.22;39.77;98497.02;225353;1278;22544;-79
2023/04/22 13:02:44;;;;;;;3.50;3.10;;;;;;;20.19;40.22;98489.38;225362;1278;22616;-79
2023/04/22 13:07:46;;;;;;;3.50;3.20;;;;;;;20.18;39.95;98487.88;225380;1280;22530;-79
2023/04/22 13:13:06;;;;;;;5.10;3.10;;;;;;;20.15;39.84;98484.27;225247;1280;22526;-79
2023/04/22 13:18:12;;;;;;;3.40;3.10;;;;;;;20.12;40.13;98478.77;225382;1279;22527;-79
2023/04/22 13:23:15;;;;;;;3.50;3.20;;;;;;;20.12;40.40;98474.16;225332;1277;22523;-79
2023/04/22 13:28:18;;;;;;;3.00;2.70;;;;;;;20.15;40.77;98471.17;225331;1279;22549;-78
2023/04/22 13:33:21;;;;;;;3.70;3.30;;;;;;;20.20;40.73;98467.02;225339;1274;22528;-79
2023/04/22 13:38:24;;;;;;;7.00;3.60;;;;;;;20.26;40.19;98459.77;225183;1275;22538;-80
2023/04/22 13:43:26;;;;;;;3.50;3.00;;;;;;;20.24;39.75;98455.34;225290;1279;22525;-79
2023/04/22 13:48:28;;;;;;;4.60;3.20;;;;;;;20.23;39.86;98453.08;225198;1273;22539;-78
2023/04/22 13:53:31;;;;;;;4.00;3.20;;;;;;;20.23;39.73;98448.73;225345;1276;24324;-79
2023/04/22 13:58:35;;;;;;;3.90;3.30;;;;;;;20.21;39.70;98446.41;225352;1273;24229;-79
2023/04/22 14:03:37;;;;;;;3.30;3.00;;;;;;;20.25;40.29;98443.92;225134;1280;22566;-79
2023/04/22 14:08:40;;;;;;;3.30;2.80;;;;;;;20.36;40.26;98439.61;225243;1275;22557;-80
2023/04/22 14:13:43;;;;;;;3.50;3.20;;;;;;;20.45;39.45;98438.06;225333;1278;22542;-80
2023/04/22 14:18:46;;;;;;;4.60;3.00;;;;;;;20.47;39.14;98438.24;225207;1276;23381;-78
2023/04/22 14:23:49;;;;;;;3.50;3.10;;;;;;;20.52;39.29;98433.26;225343;1278;22551;-80
2023/04/22 14:28:51;;;;;;;4.00;3.10;;;;;;;20.55;38.69;98434.09;225177;1272;22538;-79
2023/04/22 14:33:53;;;;;;;4.30;3.00;;;;;;;20.56;38.71;98425.19;225295;1280;22864;-80
2023/04/22 14:38:55;;;;;;;4.70;3.00;;;;;;;20.59;39.09;98425.64;225404;1276;22562;-79
2023/04/22 14:43:57;;;;;;;4.00;2.90;;;;;;;20.66;39.26;98426.36;225361;1275;22553;-79
2023/04/22 14:48:59;;;;;;;6.60;3.30;;;;;;;20.75;39.21;98423.98;225380;1278;26723;-81
2023/04/22 14:54:02;;;;;;;3.40;3.10;;;;;;;20.87;39.13;98415.86;225315;1278;22540;-79
2023/04/22 14:59:04;;;;;;;3.90;3.20;;;;;;;20.93;38.26;98414.64;225111;1280;22548;-79
2023/04/22 15:04:06;;;;;;;3.50;3.10;;;;;;;20.91;37.95;98415.13;225371;1278;22524;-79
2023/04/22 15:09:09;;;;;;;2.90;2.70;;;;;;;20.87;37.51;98410.77;225311;1280;22531;-78
2023/04/22 15:14:12;;;;;;;3.70;2.60;;;;;;;20.83;36.38;98409.61;225344;1278;22535;-79
2023/04/22 15:19:16;;;;;;;2.50;2.30;;;;;;;20.82;36.18;98406.77;225335;1280;22539;-80
2023/04/22 15:24:21;;;;;;;2.90;2.60;;;;;;;20.77;35.81;98399.71;225234;1278;22527;-78
2023/04/22 15:29:23;;;;;;;2.80;2.50;;;;;;;20.74;36.38;98396.59;225289;1280;25292;-78
2023/04/22 15:34:25;;;;;;;3.30;2.70;;;;;;;20.75;36.40;98399.34;225353;1278;22534;-79
2023/04/22 15:39:27;;;;;;;5.00;3.10;;;;;;;20.73;36.22;98395.84;225247;1278;22534;-79
2023/04/22 15:44:30;;;;;;;3.40;3.00;;;;;;;20.72;36.48;98396.64;225306;1278;23283;-79
2023/04/22 15:49:35;;;;;;;3.30;2.70;;;;;;;20.70;36.73;98396.67;225341;1278;22544;-81
2023/04/22 15:54:39;;;;;;;4.20;2.90;;;;;;;20.63;36.37;98399.48;225223;1280;22591;-79
2023/04/22 15:59:41;;;;;;;3.80;2.80;;;;;;;20.50;35.85;98399.17;225231;1280;22539;-79
2023/04/22 16:04:44;;;;;;;5.20;3.10;;;;;;;20.38;36.30;98399.32;225303;1280;24187;-79
2023/04/22 16:09:46;;;;;;;3.40;2.80;;;;;;;20.36;36.96;98400.05;225275;1280;22548;-80
2023/04/22 16:14:48;;;;;;;4.90;3.60;;;;;;;20.45;36.98;98393.46;225163;1274;22526;-80
2023/04/22 16:19:50;;;;;;;3.80;3.40;;;;;;;20.34;37.06;98389.04;225340;1278;22562;-80
2023/04/22 16:24:52;;;;;;;3.60;3.30;;;;;;;20.17;37.23;98385.29;225164;1280;22790;-79
2023/04/22 16:29:54;;;;;;;3.90;3.20;;;;;;;20.00;37.07;98388.82;225335;1278;22535;-79
2023/04/22 16:34:56;;;;;;;3.60;3.20;;;;;;;19.84;37.36;98383.19;225184;1280;22667;-79
2023/04/22 16:39:59;;;;;;;5.10;3.60;;;;;;;19.69;37.42;98383.13;225329;1280;25269;-78
2023/04/22 16:45:02;;;;;;;4.60;3.30;;;;;;;19.54;38.21;98381.02;225334;1278;22538;-79
2023/04/22 16:50:05;;;;;;;4.10;3.30;;;;;;;19.41;38.59;98374.40;225383;1280;24236;-79
2023/04/22 16:55:08;;;;;;;5.50;3.40;;;;;;;19.27;38.60;98370.58;225322;1280;22539;-79
2023/04/22 17:00:10;;;;;;;4.40;3.40;;;;;;;19.09;38.55;98367.84;225397;1278;22559;-81
2023/04/22 17:05:13;;;;;;;4.60;3.30;;;;;;;18.90;38.91;98370.48;225259;1280;24339;-80
2023/04/22 17:10:15;;;;;;;4.00;3.40;;;;;;;18.69;39.42;98371.10;225409;1280;22530;-79
2023/04/22 17:15:17;;;;;;;4.70;3.10;;;;;;;18.46;39.85;98374.59;225248;1280;22558;-80
2023/04/22 17:20:19;;;;;;;4.10;3.20;;;;;;;18.20;40.24;98378.10;225332;1278;22551;-79
2023/04/22 17:25:22;;;;;;;3.30;3.00;;;;;;;17.95;40.46;98372.78;225376;1280;22550;-79
2023/04/22 17:30:24;;;;;;;3.50;3.00;;;;;;;17.68;40.58;98374.77;225223;1280;22515;-80
2023/04/22 17:35:26;;;;;;;3.90;3.40;;;;;;;17.41;40.65;98374.68;225314;1278;22537;-79
2023/04/22 17:40:28;;;;;;;5.30;3.60;;;;;;;17.13;40.75;98371.52;225401;1276;24259;-79
2023/04/22 17:45:30;;;;;;;3.50;3.20;;;;;;;16.86;41.23;98374.52;225376;1278;22587;-79
2023/04/22 17:50:32;;;;;;;6.10;3.40;;;;;;;16.59;41.78;98375.55;225403;1277;22593;-79
2023/04/22 17:55:35;;;;;;;4.40;3.50;;;;;;;16.33;42.09;98377.98;225411;1275;22560;-79
2023/04/22 18:00:37;;;;;;;3.50;3.10;;;;;;;16.06;42.13;98378.65;225258;1280;22691;-79
2023/04/22 18:05:42;;;;;;;4.80;3.20;;;;;;;15.81;42.29;98376.97;225419;1280;22545;-79
2023/04/22 18:10:44;;;;;;;4.20;3.60;;;;;;;15.57;42.85;98382.88;225208;1280;22531;-80
2023/04/22 18:15:46;;;;;;;4.40;3.70;;;;;;;15.33;43.11;98394.23;225314;1280;22536;-81
2023/04/22 18:20:49;;;;;;;5.10;4.20;;;;;;;15.08;43.66;98396.38;225359;1280;24776;-80
2023/04/22 18:25:53;;;;;;;6.80;4.30;;;;;;;14.85;43.63;98397.27;225340;1279;22568;-80
2023/04/22 18:30:55;;;;;;;6.90;5.40;;;;;;;14.62;43.89;98399.33;225444;1280;22918;-79
2023/04/22 18:35:58;;;;;;;8.70;7.00;;;;;;;14.43;44.31;98398.23;225232;1279;22588;-79
2023/04/22 18:41:00;;;;;;;11.60;8.40;;;;;;;14.26;44.51;98405.35;225444;1277;22534;-80
2023/04/22 18:46:03;;;;;;;13.70;10.10;;;;;;;14.10;44.84;98411.27;225464;1277;22566;-79
2023/04/22 18:51:05;;;;;;;16.10;12.50;;;;;;;13.96;45.33;98410.42;225283;1275;22538;-80
2023/04/22 18:56:07;;;;;;;23.10;15.90;;;;;;;13.84;45.95;98406.83;225214;1280;22530;-79
2023/04/22 19:01:10;;;;;;;27.30;19.00;;;;;;;13.71;46.64;98411.33;225255;1280;22528;-79
2023/04/22 19:06:13;;;;;;;19.90;15.00;;;;;;;13.61;47.12;98414.40;225273;1280;23934;-79
2023/04/22 19:11:15;;;;;;;22.00;15.20;;;;;;;13.47;48.36;98417.13;225421;1278;22572;-79
2023/04/22 19:16:18;;;;;;;26.60;17.60;;;;;;;13.31;48.95;98416.58;225279;1279;22637;-79
2023/04/22 19:21:20;;;;;;;15.30;12.00;;;;;;;13.15;49.91;98422.51;225407;1277;22528;-79
2023/04/22 19:26:23;;;;;;;16.80;11.10;;;;;;;12.97;51.43;98418.42;225291;1278;22570;-79
2023/04/22 19:31:27;;;;;;;24.30;15.60;;;;;;;12.77;52.25;98415.42;225199;1280;25932;-81
2023/04/22 19:36:30;;;;;;;20.70;15.20;;;;;;;12.55;52.38;98414.20;225145;1280;22616;-80
2023/04/22 19:41:32;;;;;;;23.90;15.30;;;;;;;12.36;52.41;98413.36;224946;1274;22543;-79
2023/04/22 19:46:37;;;;;;;21.10;14.30;;;;;;;12.19;52.71;98413.08;225169;1280;22536;-78
2023/04/22 19:51:40;;;;;;;23.00;14.50;;;;;;;12.04;52.72;98414.83;225413;1276;22775;-79
2023/04/22 19:56:44;;;;;;;33.80;23.10;;;;;;;11.92;53.63;98423.34;225212;1278;22545;-80
2023/04/22 20:01:47;;;;;;;38.00;25.00;;;;;;;11.82;54.45;98420.46;225254;1280;22527;-80
2023/04/22 20:06:50;;;;;;;36.40;25.30;;;;;;;11.66;54.79;98414.70;225271;1279;23218;-78
2023/04/22 20:11:53;;;;;;;36.80;26.40;;;;;;;11.51;55.24;98416.45;225407;1280;22531;-81
2023/04/22 20:16:56;;;;;;;38.10;26.00;;;;;;;11.38;55.94;98409.11;225260;1268;22533;-80
2023/04/22 20:21:59;;;;;;;45.60;32.30;;;;;;;11.29;56.54;98406.08;225244;1279;25372;-78
2023/04/22 20:27:03;;;;;;;35.10;26.00;;;;;;;11.20;56.95;98408.84;225153;1280;22595;-80
2023/04/22 20:32:05;;;;;;;35.30;24.00;;;;;;;11.10;57.01;98406.46;225424;1271;22525;-79
2023/04/22 20:37:11;;;;;;;34.00;24.20;;;;;;;10.97;57.36;98404.02;225312;1280;24245;-80
2023/04/22 20:42:14;;;;;;;32.00;22.70;;;;;;;10.83;57.75;98403.91;225301;1275;22531;-79
2023/04/22 20:47:16;;;;;;;31.20;22.70;;;;;;;10.77;58.48;98400.31;225340;1280;22974;-79
2023/04/22 20:52:18;;;;;;;33.60;23.70;;;;;;;10.73;58.68;98400.77;225217;1280;22522;-79
2023/04/22 20:57:21;;;;;;;31.80;24.70;;;;;;;10.63;58.67;98401.48;225294;1280;22589;-81
2023/04/22 21:02:25;;;;;;;34.20;25.50;;;;;;;10.51;59.00;98402.70;225416;1278;22527;-79
2023/04/22 21:07:29;;;;;;;36.00;25.00;;;;;;;10.38;59.08;98402.96;225330;1275;23852;-79
2023/04/22 21:12:34;;;;;;;34.40;25.40;;;;;;;10.27;59.42;98405.86;225157;1280;22538;-79
2023/04/22 21:17:40;;;;;;;33.30;23.70;;;;;;;10.13;59.41;98408.63;225373;1278;22531;-78
2023/04/22 21:22:44;;;;;;;31.90;22.70;;;;;;;10.01;59.92;98407.88;225467;1278;22530;-78
2023/04/22 21:27:47;;;;;;;33.20;22.70;;;;;;;9.90;59.86;98411.84;225379;1278;25968;-79
2023/04/22 21:32:51;;;;;;;29.10;22.20;;;;;;;9.82;60.33;98414.16;225113;1274;22542;-80
2023/04/22 21:37:54;;;;;;;29.60;20.90;;;;;;;9.74;60.48;98416.05;225362;1278;22524;-82
2023/04/22 21:42:58;;;;;;;29.70;21.80;;;;;;;9.66;60.55;98417.36;225272;1280;22528;-81
2023/04/22 21:48:07;;;;;;;31.10;22.70;;;;;;;9.60;60.89;98414.61;225421;1275;25383;-79
2023/04/22 21:53:29;;;;;;;30.10;21.40;;;;;;;9.55;60.88;98419.27;225289;1280;22544;-78
2023/04/22 21:58:32;;;;;;;35.80;22.80;;;;;;;9.51;61.21;98419.80;225378;1278;22550;-80
2023/04/22 22:03:35;;;;;;;32.20;22.90;;;;;;;9.47;61.39;98417.31;225435;1278;22588;-79
2023/04/22 22:08:38;;;;;;;31.30;22.50;;;;;;;9.42;61.13;98412.42;225222;1280;22655;-78
2023/04/22 22:13:40;;;;;;;31.30;23.10;;;;;;;9.38;61.50;98415.59;225441;1278;22530;-79
2023/04/22 22:18:44;;;;;;;32.10;22.20;;;;;;;9.34;61.77;98414.62;225271;1280;22537;-79
2023/04/22 22:23:46;;;;;;;31.90;23.00;;;;;;;9.31;61.63;98414.59;225069;1274;275350;-78
2023/04/22 22:28:49;;;;;;;31.70;22.80;;;;;;;9.27;61.75;98416.46;225128;1280;26485;-79
2023/04/22 22:33:50;;;;;;;30.90;22.10;;;;;;;9.25;62.02;98415.42;225446;1278;25422;-77
2023/04/22 22:38:52;;;;;;;31.90;22.50;;;;;;;9.23;62.01;98412.44;225235;1280;22515;-78
2023/04/22 22:43:54;;;;;;;29.30;20.60;;;;;;;9.20;62.11;98416.39;225377;1279;22534;-81
2023/04/22 22:48:58;;;;;;;30.70;20.70;;;;;;;9.14;61.96;98420.11;225275;1280;22527;-78
2023/04/22 22:54:00;;;;;;;31.30;20.30;;;;;;;9.09;62.02;98424.30;225418;1280;25632;-80
2023/04/22 22:59:02;;;;;;;26.20;17.60;;;;;;;9.04;62.15;98418.64;225425;1278;22535;-79
2023/04/22 23:04:05;;;;;;;24.90;17.40;;;;;;;9.03;62.06;98419.52;225361;1278;22536;-78
2023/04/22 23:09:09;;;;;;;25.50;17.20;;;;;;;9.03;62.08;98423.05;225402;1280;22527;-80
2023/04/22 23:14:18;;;;;;;24.90;18.50;;;;;;;9.02;62.21;98422.70;225253;1280;22552;-79
2023/04/22 23:19:20;;;;;;;25.20;18.50;;;;;;;8.99;62.43;98417.93;225388;1280;24385;-79
2023/04/22 23:24:23;;;;;;;26.70;18.40;;;;;;;8.95;62.31;98417.98;225366;1278;24273;-79
2023/04/22 23:29:25;;;;;;;21.80;16.30;;;;;;;8.88;62.49;98416.91;225368;1278;22534;-79
2023/04/22 23:34:30;;;;;;;22.10;16.10;;;;;;;8.81;62.41;98409.95;225299;1280;22579;-79
2023/04/22 23:39:32;;;;;;;30.60;19.40;;;;;;;8.75;62.34;98404.94;225404;1278;22552;-80
2023/04/22 23:44:35;;;;;;;28.70;18.40;;;;;;;8.70;62.52;98405.04;225317;1280;22563;-79
2023/04/22 23:49:40;;;;;;;22.90;17.90;;;;;;;8.66;63.33;98403.08;225256;1279;22540;-78
2023/04/22 23:54:43;;;;;;;22.70;16.30;;;;;;;8.60;63.48;98398.65;225214;1280;24309;-79
2023/04/22 23:59:46;;;;;;;20.70;14.30;;;;;;;8.53;63.36;98398.92;225431;1278;22528;-79
